Time;durP1;ratioP1;P1;durP2;ratioP2;P2;SDS_P1;SDS_P2;PMS_P1;PMS_P2;Temp;Humidity;BMP_temperature;BMP_pressure;BME280_temperature;BME280_humidity;BME280_pressure;Samples;Min_cycle;Max_cycle;Signal;HPM_P1;HPM_P2
2021/10/15 00:00:37;;;;;;;9.95;4.93;;;13.80;93.60;;;;;;4805816;29;20061;-86
2021/10/15 00:03:06;;;;;;;11.35;5.80;;;13.80;93.70;;;;;;4789533;29;20130;-86
2021/10/15 00:05:32;;;;;;;11.27;6.20;;;13.80;94.10;;;;;;4789197;29;20141;-86
2021/10/15 00:07:57;;;;;;;14.27;6.50;;;13.80;93.90;;;;;;4789879;29;20391;-87
2021/10/15 00:10:23;;;;;;;11.75;6.78;;;13.80;94.00;;;;;;4805933;29;20049;-86
2021/10/15 00:12:49;;;;;;;16.58;7.80;;;13.80;94.10;;;;;;4788442;29;20051;-86
2021/10/15 00:15:15;;;;;;;13.88;7.20;;;13.80;94.20;;;;;;4789785;29;20381;-86
2021/10/15 00:17:40;;;;;;;11.75;7.28;;;13.70;94.20;;;;;;4789714;29;20043;-85
2021/10/15 00:20:07;;;;;;;15.27;8.20;;;13.80;94.60;;;;;;4789322;29;20082;-86
2021/10/15 00:22:33;;;;;;;12.32;7.63;;;13.80;94.40;;;;;;4805649;29;20100;-85
2021/10/15 00:25:01;;;;;;;15.88;9.07;;;13.80;94.50;;;;;;4790008;29;20050;-86
2021/10/15 00:27:27;;;;;;;16.73;9.00;;;13.80;94.90;;;;;;4788870;29;20054;-88
2021/10/15 00:29:52;;;;;;;17.15;9.65;;;13.80;94.60;;;;;;4786470;29;20055;-86
2021/10/15 00:32:18;;;;;;;18.50;9.57;;;13.80;94.70;;;;;;4779065;29;20082;-87
2021/10/15 00:34:44;;;;;;;12.70;8.52;;;13.80;94.70;;;;;;4788806;29;20073;-86
2021/10/15 00:37:10;;;;;;;19.40;10.23;;;13.80;94.80;;;;;;4790047;29;20050;-85
2021/10/15 00:39:35;;;;;;;18.08;11.30;;;13.80;94.80;;;;;;4789485;29;20442;-86
2021/10/15 00:42:01;;;;;;;20.05;11.80;;;13.80;94.90;;;;;;4788985;29;20058;-86
2021/10/15 00:44:27;;;;;;;21.08;11.48;;;13.80;95.00;;;;;;4789370;29;20516;-86
2021/10/15 00:46:54;;;;;;;17.65;11.10;;;13.80;95.00;;;;;;4789861;29;20058;-86
2021/10/15 00:49:20;;;;;;;21.40;11.80;;;13.80;95.10;;;;;;4789443;29;20046;-86
2021/10/15 00:51:46;;;;;;;18.65;11.95;;;13.80;95.10;;;;;;4789439;29;20049;-86
2021/10/15 00:54:14;;;;;;;18.50;11.63;;;13.80;95.20;;;;;;4788991;29;20050;-85
2021/10/15 00:56:42;;;;;;;16.25;11.40;;;13.80;95.20;;;;;;4775519;29;20055;-86
2021/10/15 00:59:07;;;;;;;17.85;11.27;;;13.80;95.10;;;;;;4793267;29;20050;-85
2021/10/15 01:01:33;;;;;;;18.40;12.23;;;13.80;95.10;;;;;;4792326;29;20055;-85
2021/10/15 01:04:00;;;;;;;19.13;13.02;;;13.80;95.10;;;;;;4792844;29;20552;-86
2021/10/15 01:06:27;;;;;;;21.08;12.18;;;13.80;95.20;;;;;;4793047;29;20055;-86
2021/10/15 01:08:53;;;;;;;17.45;12.55;;;13.80;95.20;;;;;;4791740;29;20247;-85
2021/10/15 01:11:19;;;;;;;18.27;12.25;;;13.80;95.20;;;;;;4793035;29;20047;-86
2021/10/15 01:13:46;;;;;;;17.40;11.38;;;13.80;95.10;;;;;;4791869;29;20039;-85
2021/10/15 01:16:13;;;;;;;22.58;11.85;;;13.70;95.10;;;;;;4791790;29;20055;-86
2021/10/15 01:18:40;;;;;;;19.13;12.10;;;13.80;95.50;;;;;;4792323;29;20058;-85
2021/10/15 01:21:08;;;;;;;18.50;12.40;;;13.80;95.20;;;;;;4784321;29;20067;-86
2021/10/15 01:23:33;;;;;;;17.77;12.43;;;13.80;95.30;;;;;;4791650;29;20104;-85
2021/10/15 01:25:59;;;;;;;20.52;12.70;;;13.80;95.60;;;;;;4792557;29;20051;-85
2021/10/15 01:28:27;;;;;;;19.30;13.82;;;13.80;95.30;;;;;;4792591;29;20211;-86
2021/10/15 01:30:52;;;;;;;20.10;12.65;;;13.80;95.40;;;;;;4791727;29;20062;-86
2021/10/15 01:33:18;;;;;;;20.65;13.57;;;13.80;95.50;;;;;;4792843;29;20137;-86
2021/10/15 01:35:47;;;;;;;18.00;13.95;;;13.80;95.50;;;;;;4791520;29;20038;-86
2021/10/15 01:38:13;;;;;;;23.70;14.32;;;13.80;95.60;;;;;;4792457;29;20396;-86
2021/10/15 01:40:41;;;;;;;21.17;15.00;;;13.80;95.70;;;;;;4792059;29;20082;-86
2021/10/15 01:43:07;;;;;;;20.10;14.52;;;13.80;95.80;;;;;;4795129;29;20129;-85
2021/10/15 01:45:33;;;;;;;20.67;14.40;;;13.80;95.80;;;;;;4807440;29;20319;-86
2021/10/15 01:48:01;;;;;;;21.98;13.88;;;13.80;95.80;;;;;;4791843;29;20055;-86
2021/10/15 01:50:28;;;;;;;22.83;14.95;;;13.80;95.90;;;;;;4791640;29;20047;-85
2021/10/15 01:52:54;;;;;;;19.60;14.32;;;13.80;96.00;;;;;;4792642;29;20142;-86
2021/10/15 01:55:20;;;;;;;18.15;13.40;;;13.80;96.00;;;;;;4790409;29;20130;-86
2021/10/15 01:57:47;;;;;;;17.92;12.80;;;13.80;96.00;;;;;;4791967;29;20082;-86
2021/10/15 02:00:14;;;;;;;21.83;14.65;;;13.80;96.00;;;;;;4792412;29;20425;-85
2021/10/15 02:02:40;;;;;;;19.73;13.75;;;13.80;96.00;;;;;;4792137;29;20077;-85
2021/10/15 02:05:08;;;;;;;19.33;14.23;;;13.80;96.00;;;;;;4791783;29;20096;-87
2021/10/15 02:07:34;;;;;;;20.30;13.52;;;13.80;96.00;;;;;;4791823;29;20104;-86
2021/10/15 02:09:59;;;;;;;21.80;14.27;;;13.80;96.00;;;;;;4792094;29;20050;-86
2021/10/15 02:12:25;;;;;;;18.63;14.07;;;13.80;96.10;;;;;;4791952;29;20046;-86
2021/10/15 02:14:51;;;;;;;20.75;15.13;;;13.80;96.10;;;;;;4792112;29;20504;-86
2021/10/15 02:17:16;;;;;;;20.60;13.80;;;13.80;96.10;;;;;;4792100;29;20047;-86
2021/10/15 02:19:42;;;;;;;20.38;14.30;;;13.80;96.20;;;;;;4807309;29;20154;-86
2021/10/15 02:22:08;;;;;;;19.70;14.20;;;13.80;96.20;;;;;;4791714;29;20055;-85
2021/10/15 02:24:33;;;;;;;20.10;14.27;;;13.80;96.30;;;;;;4791925;29;20051;-85
2021/10/15 02:26:59;;;;;;;23.38;14.10;;;13.80;96.20;;;;;;4791075;29;20047;-84
2021/10/15 02:29:25;;;;;;;18.77;14.13;;;13.80;96.30;;;;;;4791823;29;20137;-85
2021/10/15 02:31:50;;;;;;;23.35;13.52;;;13.80;96.20;;;;;;4791999;29;20497;-85
2021/10/15 02:34:17;;;;;;;19.75;13.95;;;13.80;96.30;;;;;;4790895;29;20047;-86
2021/10/15 02:36:43;;;;;;;21.33;13.95;;;13.80;96.40;;;;;;4791778;29;20055;-84
2021/10/15 02:39:08;;;;;;;22.48;12.85;;;13.80;96.40;;;;;;4791036;29;20122;-84
2021/10/15 02:41:37;;;;;;;20.15;12.55;;;13.80;96.40;;;;;;4791403;29;20404;-86
2021/10/15 02:44:05;;;;;;;18.25;12.52;;;13.70;96.40;;;;;;4791235;29;20496;-85
2021/10/15 02:46:30;;;;;;;21.80;12.15;;;13.80;96.40;;;;;;4791246;29;20055;-85
2021/10/15 02:48:56;;;;;;;17.75;12.30;;;13.80;96.40;;;;;;4790712;29;20062;-85
2021/10/15 02:51:21;;;;;;;23.85;12.20;;;13.70;96.40;;;;;;4791303;29;20051;-85
2021/10/15 02:53:47;;;;;;;17.88;11.93;;;13.80;96.50;;;;;;4790136;29;20046;-85
2021/10/15 02:56:12;;;;;;;20.63;11.32;;;13.80;96.50;;;;;;4791331;29;20091;-84
2021/10/15 02:58:38;;;;;;;21.67;12.20;;;13.80;96.50;;;;;;4791134;29;20050;-85
2021/10/15 03:01:03;;;;;;;17.98;10.93;;;13.80;96.60;;;;;;4790686;29;20054;-84
2021/10/15 03:03:29;;;;;;;19.48;10.82;;;13.70;96.60;;;;;;4790952;29;20078;-85
2021/10/15 03:05:54;;;;;;;17.58;11.32;;;13.80;96.70;;;;;;4790704;29;20519;-84
2021/10/15 03:08:20;;;;;;;19.23;10.85;;;13.80;96.70;;;;;;4789626;29;20393;-85
2021/10/15 03:10:45;;;;;;;22.45;11.43;;;13.80;96.70;;;;;;4790760;29;20561;-86
2021/10/15 03:13:11;;;;;;;23.40;11.82;;;13.80;96.80;;;;;;4790830;29;20046;-85
2021/10/15 03:15:36;;;;;;;22.70;11.40;;;13.80;96.80;;;;;;4789589;29;20054;-85
2021/10/15 03:18:02;;;;;;;20.38;11.23;;;13.80;96.90;;;;;;4790033;29;20058;-86
2021/10/15 03:20:28;;;;;;;21.25;11.15;;;13.80;96.90;;;;;;4789457;29;20086;-85
2021/10/15 03:22:56;;;;;;;19.02;11.98;;;13.80;96.90;;;;;;4805871;29;20042;-84
2021/10/15 03:25:22;;;;;;;17.05;10.50;;;13.80;96.90;;;;;;4790042;29;20042;-85
2021/10/15 03:27:47;;;;;;;20.92;10.77;;;13.80;96.90;;;;;;4790059;29;20369;-85
2021/10/15 03:30:13;;;;;;;20.15;11.27;;;13.80;96.90;;;;;;4789450;29;20050;-84
2021/10/15 03:32:39;;;;;;;20.83;10.90;;;13.80;96.90;;;;;;4790160;29;20092;-85
2021/10/15 03:35:05;;;;;;;22.55;10.43;;;13.80;96.90;;;;;;4790431;29;20043;-85
2021/10/15 03:37:30;;;;;;;16.80;10.52;;;13.80;96.90;;;;;;4789059;29;20058;-84
2021/10/15 03:40:00;;;;;;;19.02;10.57;;;13.90;96.80;;;;;;4775629;29;20053;-85
2021/10/15 03:42:26;;;;;;;18.63;10.10;;;13.80;96.80;;;;;;4790369;29;20046;-85
2021/10/15 03:44:51;;;;;;;18.63;10.10;;;13.80;96.80;;;;;;4789741;29;20047;-84
2021/10/15 03:47:17;;;;;;;21.08;10.45;;;13.80;96.90;;;;;;4790324;29;20051;-85
2021/10/15 03:49:43;;;;;;;20.95;11.02;;;13.80;96.90;;;;;;4790128;29;20041;-85
2021/10/15 03:52:10;;;;;;;19.88;10.38;;;13.90;96.90;;;;;;4785639;29;20115;-84
2021/10/15 03:54:35;;;;;;;19.38;10.50;;;13.80;96.90;;;;;;4789598;29;20488;-84
2021/10/15 03:57:01;;;;;;;20.10;9.75;;;13.90;96.90;;;;;;4790612;29;20055;-84
2021/10/15 03:59:26;;;;;;;21.20;11.10;;;13.80;96.90;;;;;;4789374;29;20385;-85
2021/10/15 04:01:52;;;;;;;19.05;10.60;;;13.80;96.90;;;;;;4806030;29;20149;-84
2021/10/15 04:04:17;;;;;;;19.63;9.40;;;13.80;97.00;;;;;;4789156;29;20054;-85
2021/10/15 04:06:43;;;;;;;16.52;9.25;;;13.80;96.90;;;;;;4790049;29;20465;-85
2021/10/15 04:09:08;;;;;;;20.45;9.93;;;13.80;96.90;;;;;;4789865;29;20462;-85
2021/10/15 04:11:34;;;;;;;18.88;8.48;;;13.80;96.90;;;;;;4789274;29;20127;-85
2021/10/15 04:14:00;;;;;;;19.48;9.13;;;13.80;96.90;;;;;;4789970;29;20078;-85
2021/10/15 04:16:26;;;;;;;21.92;8.77;;;13.80;96.90;;;;;;4789761;29;20051;-85
2021/10/15 04:18:51;;;;;;;16.63;8.55;;;13.80;96.90;;;;;;4788704;29;20042;-85
2021/10/15 04:21:17;;;;;;;18.65;8.85;;;13.80;96.90;;;;;;4788808;29;20149;-85
2021/10/15 04:23:43;;;;;;;17.90;8.05;;;13.80;96.90;;;;;;4789484;29;20054;-85
2021/10/15 04:26:08;;;;;;;19.45;7.57;;;13.80;96.90;;;;;;4789395;29;20514;-85
2021/10/15 04:28:34;;;;;;;20.08;7.30;;;13.80;96.90;;;;;;4789112;29;20046;-84
2021/10/15 04:31:00;;;;;;;15.60;6.70;;;13.80;96.90;;;;;;4793762;29;20059;-86
2021/10/15 04:33:26;;;;;;;15.73;6.32;;;13.80;96.90;;;;;;4792516;29;20130;-86
2021/10/15 04:35:52;;;;;;;15.95;6.22;;;13.80;96.90;;;;;;4794025;29;20386;-86
2021/10/15 04:38:17;;;;;;;14.25;5.60;;;13.80;96.80;;;;;;4793283;29;20043;-85
2021/10/15 04:40:43;;;;;;;16.83;5.72;;;13.80;96.90;;;;;;4792926;29;20416;-85
2021/10/15 04:43:09;;;;;;;18.08;7.18;;;13.80;96.90;;;;;;4793212;29;20153;-84
2021/10/15 04:45:34;;;;;;;14.35;5.28;;;13.80;96.90;;;;;;4793542;29;20057;-84
2021/10/15 04:48:03;;;;;;;14.73;5.40;;;13.80;97.00;;;;;;4792234;29;20043;-83
2021/10/15 04:50:30;;;;;;;15.93;5.03;;;13.80;97.00;;;;;;4793265;29;20459;-84
2021/10/15 04:52:58;;;;;;;13.13;4.82;;;13.80;97.10;;;;;;4792214;29;20065;-82
2021/10/15 04:55:24;;;;;;;16.25;4.40;;;13.80;97.10;;;;;;4792456;29;20051;-83
2021/10/15 04:57:50;;;;;;;14.55;4.20;;;13.70;97.20;;;;;;4792513;29;20043;-83
2021/10/15 05:00:18;;;;;;;14.57;4.55;;;13.80;97.30;;;;;;4793395;29;20403;-82
2021/10/15 05:02:44;;;;;;;15.23;4.40;;;13.70;97.40;;;;;;4792256;29;20055;-82
2021/10/15 05:05:10;;;;;;;16.85;4.57;;;13.70;97.40;;;;;;4793093;29;20061;-82
2021/10/15 05:07:36;;;;;;;12.38;4.50;;;13.70;97.50;;;;;;4792172;29;20488;-82
2021/10/15 05:10:03;;;;;;;12.50;4.40;;;13.70;97.50;;;;;;4792934;29;20137;-81
2021/10/15 05:12:29;;;;;;;11.35;4.25;;;13.60;97.60;;;;;;4793253;29;20381;-80
2021/10/15 05:14:55;;;;;;;12.70;4.40;;;13.60;97.70;;;;;;4791091;29;20049;-81
2021/10/15 05:17:20;;;;;;;12.52;4.22;;;13.60;97.70;;;;;;4791814;29;20046;-80
2021/10/15 05:19:46;;;;;;;11.32;4.50;;;13.60;97.80;;;;;;4791343;29;20659;-82
2021/10/15 05:22:12;;;;;;;11.88;4.30;;;13.60;97.80;;;;;;4792338;29;20419;-82
2021/10/15 05:24:38;;;;;;;11.23;4.13;;;13.60;97.90;;;;;;4791475;29;20055;-80
2021/10/15 05:27:04;;;;;;;8.10;2.72;;;13.50;97.90;;;;;;4792402;29;20054;-80
2021/10/15 05:29:29;;;;;;;9.40;2.70;;;13.50;97.80;;;;;;4791871;29;20419;-80
2021/10/15 05:31:55;;;;;;;5.28;1.85;;;13.50;97.50;;;;;;4792532;29;20050;-82
2021/10/15 05:34:20;;;;;;;3.88;1.25;;;13.40;97.40;;;;;;4791613;29;20073;-82
2021/10/15 05:36:46;;;;;;;5.25;1.23;;;13.30;97.10;;;;;;4806821;29;20049;-82
2021/10/15 05:39:12;;;;;;;4.95;1.35;;;13.20;96.90;;;;;;4792559;29;20155;-82
2021/10/15 05:41:37;;;;;;;5.78;1.75;;;13.10;96.90;;;;;;4807150;29;20500;-82
2021/10/15 05:44:03;;;;;;;5.50;1.63;;;13.00;96.90;;;;;;4791128;29;20077;-81
2021/10/15 05:46:29;;;;;;;4.57;0.90;;;13.00;97.00;;;;;;4792104;29;20390;-82
2021/10/15 05:48:54;;;;;;;5.82;1.50;;;12.90;96.90;;;;;;4791866;29;20094;-82
2021/10/15 05:51:22;;;;;;;4.35;0.85;;;12.80;97.00;;;;;;4791221;29;20123;-82
2021/10/15 05:53:49;;;;;;;5.25;0.93;;;12.80;97.10;;;;;;4784340;29;20365;-80
2021/10/15 05:58:50;;;;;;;5.57;1.23;;;12.70;97.00;;;;;;4792395;29;20051;-80
2021/10/15 06:01:25;;;;;;;6.37;1.40;;;12.70;97.10;;;;;;4791244;29;20137;-80
2021/10/15 06:04:07;;;;;;;7.60;1.05;;;12.70;97.20;;;;;;4790783;29;20146;-83
2021/10/15 06:14:27;;;;;;;9.70;1.48;;;12.60;97.20;;;;;;4788932;30;20086;-82
2021/10/15 06:16:54;;;;;;;7.88;1.48;;;12.50;97.20;;;;;;4789623;29;20454;-80
2021/10/15 06:19:23;;;;;;;5.03;0.95;;;12.50;97.40;;;;;;4785692;29;20105;-80
2021/10/15 06:21:49;;;;;;;5.88;1.02;;;12.50;97.40;;;;;;4782485;29;20082;-79
2021/10/15 06:24:15;;;;;;;7.53;1.25;;;12.50;97.50;;;;;;4785511;29;20079;-79
2021/10/15 06:26:41;;;;;;;6.05;1.15;;;12.50;97.40;;;;;;4784454;29;20046;-79
2021/10/15 06:29:07;;;;;;;7.85;1.15;;;12.50;97.40;;;;;;4790280;29;20057;-79
2021/10/15 06:31:34;;;;;;;5.95;1.08;;;12.50;97.40;;;;;;4788458;29;20042;-79
2021/10/15 06:33:59;;;;;;;8.27;1.17;;;12.40;97.40;;;;;;4789381;29;20078;-80
2021/10/15 06:36:25;;;;;;;4.75;0.93;;;12.40;97.20;;;;;;4786034;29;20043;-80
2021/10/15 06:38:50;;;;;;;9.50;1.20;;;12.40;97.20;;;;;;4779215;29;20050;-80
2021/10/15 06:41:16;;;;;;;7.70;1.02;;;12.40;97.20;;;;;;4791806;29;20054;-81
2021/10/15 06:43:42;;;;;;;8.38;1.33;;;12.40;97.00;;;;;;4789436;29;20046;-81
2021/10/15 06:46:07;;;;;;;5.28;0.88;;;12.40;97.00;;;;;;4789221;29;20508;-80
2021/10/15 06:48:34;;;;;;;6.53;1.17;;;12.40;97.10;;;;;;4789522;29;20066;-83
2021/10/15 06:51:00;;;;;;;10.05;0.98;;;12.40;97.10;;;;;;4790055;29;20047;-82
2021/10/15 06:53:25;;;;;;;6.47;0.90;;;12.40;97.00;;;;;;4788628;29;20130;-84
2021/10/15 06:55:51;;;;;;;6.43;1.27;;;12.40;97.00;;;;;;4788868;29;20058;-83
2021/10/15 06:58:17;;;;;;;9.10;1.02;;;12.30;97.00;;;;;;4790553;29;20050;-82
2021/10/15 07:00:43;;;;;;;6.97;0.90;;;12.30;96.90;;;;;;4787716;29;20100;-85
2021/10/15 07:03:14;;;;;;;5.75;1.02;;;12.30;96.90;;;;;;4790125;29;20129;-83
2021/10/15 07:05:39;;;;;;;5.05;0.90;;;12.40;97.00;;;;;;4790462;29;20054;-83
2021/10/15 07:08:05;;;;;;;5.90;0.90;;;12.40;97.10;;;;;;4789079;29;20058;-82
2021/10/15 07:10:30;;;;;;;5.03;0.95;;;12.30;97.10;;;;;;4790022;29;20046;-82
2021/10/15 07:12:56;;;;;;;8.50;1.10;;;12.30;97.00;;;;;;4790489;29;20373;-83
2021/10/15 07:15:22;;;;;;;7.00;1.00;;;12.30;97.00;;;;;;4789059;29;20039;-83
2021/10/15 07:17:47;;;;;;;9.07;1.27;;;12.30;96.80;;;;;;4791553;29;20268;-83
2021/10/15 07:20:13;;;;;;;5.50;1.05;;;12.30;96.70;;;;;;4791599;29;20149;-84
2021/10/15 07:22:39;;;;;;;5.07;0.90;;;12.20;96.80;;;;;;4790451;29;20061;-83
2021/10/15 07:25:06;;;;;;;7.15;1.40;;;12.20;96.90;;;;;;4790915;29;20047;-83
2021/10/15 07:27:31;;;;;;;8.00;1.00;;;12.20;96.70;;;;;;4790808;29;20507;-84
2021/10/15 07:29:57;;;;;;;6.28;1.15;;;12.20;96.50;;;;;;4791035;29;20050;-84
2021/10/15 07:32:23;;;;;;;7.20;1.15;;;12.20;96.60;;;;;;4791213;29;20053;-83
2021/10/15 07:34:48;;;;;;;7.97;0.90;;;12.10;96.70;;;;;;4791238;29;20063;-84
2021/10/15 07:37:14;;;;;;;4.47;0.80;;;12.10;96.90;;;;;;4790946;29;20153;-85
2021/10/15 07:39:40;;;;;;;6.47;0.88;;;12.10;96.90;;;;;;4790931;29;20043;-84
2021/10/15 07:42:05;;;;;;;4.75;0.90;;;12.10;96.90;;;;;;4791086;29;20053;-84
2021/10/15 07:44:32;;;;;;;5.80;0.90;;;12.20;97.00;;;;;;4790636;29;20427;-84
2021/10/15 07:46:58;;;;;;;6.80;1.15;;;12.20;96.90;;;;;;4790955;29;20055;-84
2021/10/15 07:49:24;;;;;;;4.90;1.17;;;12.20;96.90;;;;;;4790676;29;20055;-84
2021/10/15 07:51:49;;;;;;;4.05;0.70;;;12.20;96.90;;;;;;4790842;29;20059;-84
2021/10/15 07:54:15;;;;;;;4.35;0.80;;;12.20;96.80;;;;;;4791061;29;20054;-84
2021/10/15 07:56:41;;;;;;;6.22;1.13;;;12.20;96.90;;;;;;4790144;29;20074;-83
2021/10/15 07:59:06;;;;;;;3.67;0.70;;;12.20;96.80;;;;;;4790973;29;20050;-83
2021/10/15 08:01:32;;;;;;;5.53;0.75;;;12.20;96.70;;;;;;4790592;29;20077;-84
2021/10/15 08:03:59;;;;;;;4.75;1.02;;;12.20;96.80;;;;;;4789736;29;20385;-83
2021/10/15 08:06:25;;;;;;;4.88;0.90;;;12.20;96.80;;;;;;4775626;29;20557;-84
2021/10/15 08:08:51;;;;;;;5.55;0.90;;;12.20;96.90;;;;;;4790666;29;20055;-84
2021/10/15 08:11:18;;;;;;;6.05;0.95;;;12.20;96.80;;;;;;4790187;29;20536;-84
2021/10/15 08:13:43;;;;;;;5.35;1.38;;;12.20;96.80;;;;;;4790521;29;20057;-83
2021/10/15 08:16:09;;;;;;;9.98;1.25;;;12.20;96.80;;;;;;4790603;29;20544;-84
2021/10/15 08:18:35;;;;;;;6.30;1.10;;;12.30;96.90;;;;;;4789996;29;20047;-84
2021/10/15 08:21:00;;;;;;;6.57;1.20;;;12.30;97.00;;;;;;4790951;29;20489;-84
2021/10/15 08:23:28;;;;;;;7.90;1.50;;;12.30;97.00;;;;;;4790879;29;20408;-84
2021/10/15 08:25:55;;;;;;;9.25;1.27;;;12.40;96.90;;;;;;4789595;29;20057;-85
2021/10/15 08:28:22;;;;;;;7.40;1.13;;;12.40;96.80;;;;;;4790130;29;20105;-85
2021/10/15 08:30:47;;;;;;;5.07;0.98;;;12.40;96.80;;;;;;4789821;29;20089;-85
2021/10/15 08:33:13;;;;;;;10.05;1.23;;;12.40;96.80;;;;;;4789287;29;20077;-85
2021/10/15 08:35:39;;;;;;;7.03;1.20;;;12.40;96.50;;;;;;4790000;29;20051;-85
2021/10/15 08:38:04;;;;;;;10.18;1.30;;;12.40;96.50;;;;;;4790066;29;20051;-85
2021/10/15 08:40:30;;;;;;;11.80;1.35;;;12.40;96.50;;;;;;4789327;29;20133;-85
2021/10/15 08:42:56;;;;;;;6.38;1.10;;;12.50;96.60;;;;;;4790056;29;20051;-84
2021/10/15 08:45:24;;;;;;;7.65;1.30;;;12.50;96.60;;;;;;4789763;29;20566;-84
2021/10/15 08:47:50;;;;;;;6.38;0.90;;;12.50;96.60;;;;;;4789374;29;20043;-85
2021/10/15 08:50:16;;;;;;;10.63;1.55;;;12.50;96.60;;;;;;4790063;29;20400;-85
2021/10/15 08:52:42;;;;;;;10.15;1.67;;;12.50;96.40;;;;;;4789079;29;20051;-83
2021/10/15 08:55:07;;;;;;;8.40;1.35;;;12.60;96.20;;;;;;4789893;29;20082;-84
2021/10/15 08:57:33;;;;;;;7.82;1.13;;;12.60;96.00;;;;;;4789600;29;20105;-84
2021/10/15 09:00:00;;;;;;;7.45;1.25;;;12.70;96.20;;;;;;4787927;29;20093;-87
2021/10/15 09:02:26;;;;;;;9.48;1.40;;;12.70;96.30;;;;;;4789173;29;20050;-87
2021/10/15 09:04:57;;;;;;;10.88;1.40;;;12.70;96.30;;;;;;4789333;29;20104;-86
2021/10/15 09:07:25;;;;;;;9.82;1.40;;;12.80;96.10;;;;;;4788723;29;20435;-89
2021/10/15 09:10:08;;;;;;;8.30;1.48;;;12.80;96.00;;;;;;4790496;29;20050;-91
2021/10/15 09:12:45;;;;;;;11.30;1.50;;;12.90;95.80;;;;;;4790154;29;20050;-90
2021/10/15 09:15:11;;;;;;;8.32;1.05;;;12.90;95.60;;;;;;4789727;29;20062;-91
2021/10/15 09:17:51;;;;;;;7.10;1.27;;;12.90;95.50;;;;;;4796552;29;20141;-90
2021/10/15 09:20:40;;;;;;;15.23;1.45;;;13.00;95.30;;;;;;4803339;29;20050;-90
2021/10/15 09:34:49;;;;;;;16.98;1.77;;;13.20;94.70;;;;;;4819918;24;20055;-91
2021/10/15 09:48:51;;;;;;;20.92;2.53;;;13.40;93.50;;;;;;4990208;24;20078;-90
2021/10/15 09:51:19;;;;;;;15.35;2.40;;;13.40;93.20;;;;;;4784438;29;20097;-89
2021/10/15 09:54:08;;;;;;;16.52;2.30;;;13.50;93.10;;;;;;4782996;29;20457;-90
2021/10/15 09:56:42;;;;;;;15.73;2.63;;;13.50;92.70;;;;;;4774045;30;20554;-86
2021/10/15 09:59:08;;;;;;;15.30;2.10;;;13.60;93.40;;;;;;4774632;29;20059;-87
2021/10/15 10:01:36;;;;;;;12.77;2.13;;;13.60;93.40;;;;;;4773834;29;20047;-87
2021/10/15 10:04:06;;;;;;;14.60;2.45;;;13.70;93.60;;;;;;4786710;29;20054;-88
2021/10/15 10:06:32;;;;;;;20.02;2.88;;;13.70;93.10;;;;;;4790847;29;20580;-88
2021/10/15 10:08:59;;;;;;;20.10;2.83;;;13.70;92.50;;;;;;4793082;29;20047;-86
2021/10/15 10:11:26;;;;;;;19.40;3.05;;;13.80;92.10;;;;;;4790531;29;20051;-89
2021/10/15 10:13:52;;;;;;;18.33;2.95;;;13.80;91.90;;;;;;4791848;29;20051;-89
2021/10/15 10:16:23;;;;;;;19.67;3.10;;;13.80;91.60;;;;;;4775805;29;20047;-88
2021/10/15 10:30:13;;;;;;;17.40;2.42;;;13.80;89.30;;;;;;4785252;29;20525;-90
2021/10/15 10:50:22;;;;;;;14.88;2.63;;;13.90;88.30;;;;;;5072423;24;20057;-88
2021/10/15 10:53:04;;;;;;;13.65;2.33;;;13.90;86.70;;;;;;4803059;29;20047;-90
2021/10/15 10:55:46;;;;;;;15.82;2.55;;;14.00;86.10;;;;;;4803315;29;20091;-93
2021/10/15 10:58:42;;;;;;;13.52;2.50;;;14.00;83.80;;;;;;4799117;29;20051;-88
2021/10/15 11:01:43;;;;;;;18.23;2.70;;;14.10;83.40;;;;;;4810982;29;20136;-91
2021/10/15 11:04:31;;;;;;;17.02;2.78;;;14.10;82.80;;;;;;4840638;24;20058;-88
2021/10/15 11:15:06;;;;;;;16.52;2.70;;;14.20;82.60;;;;;;4784634;29;20084;-88
2021/10/15 11:17:48;;;;;;;15.57;2.88;;;14.20;83.80;;;;;;4805486;29;20415;-89
2021/10/15 11:20:25;;;;;;;14.88;2.45;;;14.20;84.20;;;;;;4864328;24;20101;-87
2021/10/15 11:23:00;;;;;;;15.55;3.40;;;14.20;84.10;;;;;;4801202;29;20475;-90
2021/10/15 11:25:30;;;;;;;12.82;2.53;;;14.20;83.30;;;;;;4791026;29;20051;-87
2021/10/15 11:27:59;;;;;;;16.48;2.72;;;14.20;85.10;;;;;;4789831;29;20078;-89
2021/10/15 11:30:29;;;;;;;15.05;2.78;;;14.30;84.80;;;;;;4789061;29;20046;-88
2021/10/15 11:32:55;;;;;;;17.25;2.80;;;14.30;85.40;;;;;;4790456;29;20412;-89
2021/10/15 11:35:23;;;;;;;16.95;2.80;;;14.40;85.90;;;;;;4789112;29;20051;-89
2021/10/15 11:37:50;;;;;;;14.75;2.53;;;14.40;86.00;;;;;;4790583;29;20050;-88
2021/10/15 11:40:16;;;;;;;16.52;2.53;;;14.50;84.60;;;;;;4806275;29;20056;-87
2021/10/15 11:42:42;;;;;;;14.90;2.90;;;14.50;83.30;;;;;;4796150;29;20050;-88
2021/10/15 11:45:25;;;;;;;13.95;2.58;;;14.50;83.80;;;;;;4789670;29;20039;-86
2021/10/15 11:47:57;;;;;;;17.98;2.65;;;14.50;83.90;;;;;;4789509;29;20058;-87
2021/10/15 11:50:39;;;;;;;14.70;2.60;;;14.50;84.80;;;;;;4788572;29;20050;-85
2021/10/15 11:53:05;;;;;;;16.92;2.30;;;14.60;85.10;;;;;;4790364;29;20066;-88
2021/10/15 11:55:37;;;;;;;19.40;2.80;;;14.60;87.40;;;;;;4789754;29;20042;-86
2021/10/15 11:58:19;;;;;;;13.13;2.33;;;14.60;85.90;;;;;;4789832;29;20046;-88
2021/10/15 12:01:07;;;;;;;17.45;2.67;;;14.70;82.80;;;;;;4789956;29;20058;-87
2021/10/15 12:03:40;;;;;;;16.48;2.75;;;14.70;81.60;;;;;;4789737;29;20058;-86
2021/10/15 12:06:18;;;;;;;13.75;2.38;;;14.70;82.00;;;;;;4790456;29;20101;-87
2021/10/15 12:08:45;;;;;;;16.25;2.50;;;14.80;81.90;;;;;;4790435;29;20050;-88
2021/10/15 12:11:14;;;;;;;16.40;2.83;;;14.80;82.20;;;;;;4793265;29;20381;-88
2021/10/15 12:13:40;;;;;;;12.55;2.22;;;14.80;82.30;;;;;;4795712;29;20126;-87
2021/10/15 12:16:17;;;;;;;18.08;2.83;;;14.80;83.90;;;;;;4790011;29;20077;-88
2021/10/15 12:18:43;;;;;;;15.80;2.70;;;14.80;81.90;;;;;;4789061;29;20074;-85
2021/10/15 12:21:10;;;;;;;14.57;2.60;;;14.80;82.50;;;;;;4786914;29;20098;-86
2021/10/15 12:23:52;;;;;;;16.70;3.20;;;14.80;84.00;;;;;;4767979;30;20100;-88
2021/10/15 12:26:20;;;;;;;12.52;2.60;;;14.80;81.20;;;;;;4772573;30;20055;-87
2021/10/15 12:28:45;;;;;;;12.63;2.50;;;14.80;84.10;;;;;;4772573;30;20459;-87
2021/10/15 12:31:35;;;;;;;10.98;3.20;;;14.90;84.30;;;;;;4772347;30;20055;-87
2021/10/15 12:34:13;;;;;;;11.57;2.90;;;14.90;80.50;;;;;;4778834;30;20056;-87
2021/10/15 12:36:40;;;;;;;14.60;2.90;;;14.90;84.00;;;;;;4771142;30;20051;-87
2021/10/15 12:39:24;;;;;;;17.13;5.93;;;14.90;81.90;;;;;;4771555;30;20047;-88
2021/10/15 12:41:52;;;;;;;18.48;5.53;;;15.00;79.50;;;;;;4767707;29;20137;-89
2021/10/15 12:44:30;;;;;;;14.82;3.30;;;15.00;81.80;;;;;;4771989;29;20039;-92
2021/10/15 12:46:57;;;;;;;13.10;3.05;;;15.10;83.20;;;;;;4776434;29;20073;-91
2021/10/15 12:49:23;;;;;;;14.70;3.35;;;15.10;83.80;;;;;;4780702;29;20039;-90
2021/10/15 12:51:49;;;;;;;12.65;3.28;;;15.10;81.60;;;;;;4769068;29;20047;-90
2021/10/15 12:54:52;;;;;;;11.75;2.72;;;15.10;83.00;;;;;;4778998;29;20043;-91
2021/10/15 12:57:18;;;;;;;15.27;3.15;;;15.10;83.80;;;;;;4774772;30;20058;-92
2021/10/15 13:00:25;;;;;;;11.70;3.03;;;15.10;83.70;;;;;;4769181;29;20042;-90
2021/10/15 13:03:02;;;;;;;11.95;2.90;;;15.10;83.20;;;;;;4718091;30;20082;-90
2021/10/15 13:05:29;;;;;;;12.15;2.72;;;15.10;84.90;;;;;;4720016;30;20058;-90
2021/10/15 13:07:54;;;;;;;9.95;2.38;;;15.10;85.50;;;;;;4759960;29;20108;-91
2021/10/15 13:10:22;;;;;;;12.52;3.00;;;15.10;86.50;;;;;;4786925;29;20047;-90
2021/10/15 13:12:50;;;;;;;14.45;3.15;;;15.20;87.30;;;;;;4777227;29;20047;-91
2021/10/15 13:15:18;;;;;;;13.93;2.28;;;15.20;85.90;;;;;;4791260;29;20171;-92
2021/10/15 13:17:43;;;;;;;9.55;2.65;;;15.20;84.60;;;;;;4789728;29;20043;-90
2021/10/15 13:20:10;;;;;;;10.65;2.22;;;15.20;82.40;;;;;;4783441;29;20128;-90
2021/10/15 13:22:50;;;;;;;10.48;1.98;;;15.20;83.60;;;;;;4790014;29;20448;-91
2021/10/15 13:25:15;;;;;;;9.50;1.73;;;15.10;83.00;;;;;;4807800;29;20153;-89
2021/10/15 13:27:53;;;;;;;11.23;2.05;;;15.20;83.50;;;;;;4797129;29;20055;-89
2021/10/15 13:30:20;;;;;;;10.55;2.20;;;15.20;83.60;;;;;;4790533;29;20415;-91
2021/10/15 13:32:46;;;;;;;9.77;2.00;;;15.20;84.10;;;;;;4790656;29;20061;-89
2021/10/15 13:35:12;;;;;;;11.85;2.05;;;15.20;83.00;;;;;;4792251;29;20086;-92
2021/10/15 13:37:51;;;;;;;8.32;1.80;;;15.20;83.10;;;;;;4807246;29;20620;-90
2021/10/15 13:40:19;;;;;;;17.35;2.45;;;15.20;84.40;;;;;;4794068;29;20059;-91
2021/10/15 13:43:19;;;;;;;9.85;1.52;;;15.20;82.60;;;;;;4794048;29;20062;-92
2021/10/15 13:46:28;;;;;;;12.38;1.85;;;15.20;82.90;;;;;;4799597;29;20066;-87
2021/10/15 13:55:11;;;;;;;8.68;1.60;;;15.00;81.60;;;;;;4806412;29;20523;-87
2021/10/15 13:57:39;;;;;;;8.52;1.70;;;14.90;83.30;;;;;;4789829;29;20051;-85
2021/10/15 14:00:31;;;;;;;10.43;1.65;;;14.90;83.50;;;;;;4790208;29;20100;-86